Time;durP1;ratioP1;P1;durP2;ratioP2;P2;SDS_P1;SDS_P2;PMS_P1;PMS_P2;Temp;Humidity;BMP_temperature;BMP_pressure;BME280_temperature;BME280_humidity;BME280_pressure;Samples;Min_cycle;Max_cycle;Signal;HPM_P1;HPM_P2
2023/10/13 00:01:42;;;;;;;19.50;5.40;;;;;;;14.46;99.75;100228.02;110321;1276;22186;-79
2023/10/13 00:04:13;;;;;;;18.10;6.80;;;;;;;14.43;99.75;100230.61;110316;1276;22136;-79
2023/10/13 00:06:45;;;;;;;19.10;5.60;;;;;;;14.39;99.90;100226.11;110288;1272;22170;-79
2023/10/13 00:09:16;;;;;;;19.70;5.90;;;;;;;14.37;99.97;100223.86;110302;1276;22984;-79
2023/10/13 00:11:47;;;;;;;17.90;6.10;;;;;;;14.37;99.95;100225.29;110273;1272;22907;-79
2023/10/13 00:14:18;;;;;;;20.90;6.20;;;;;;;14.36;99.93;100222.67;110300;1276;22182;-79
2023/10/13 00:17:03;;;;;;;29.50;6.50;;;;;;;14.33;100.00;100223.02;110322;1276;22159;-79
2023/10/13 00:19:45;;;;;;;16.70;5.10;;;;;;;14.31;99.99;100222.91;110264;1276;22326;-79
2023/10/13 00:22:17;;;;;;;20.80;5.60;;;;;;;14.29;100.00;100219.79;110271;1276;22166;-79
2023/10/13 00:24:51;;;;;;;21.10;6.20;;;;;;;14.27;100.00;100221.65;110307;1276;22358;-79
2023/10/13 00:27:29;;;;;;;18.00;5.70;;;;;;;14.26;100.00;100225.36;110249;1276;22227;-79
2023/10/13 00:30:20;;;;;;;20.50;6.50;;;;;;;14.25;100.00;100226.84;110301;1269;22179;-79
2023/10/13 00:32:56;;;;;;;18.60;5.50;;;;;;;14.23;100.00;100225.96;110334;1276;23042;-77
2023/10/13 00:35:29;;;;;;;17.40;5.30;;;;;;;14.21;100.00;100227.70;110316;1276;22790;-79
2023/10/13 00:38:04;;;;;;;22.40;5.50;;;;;;;14.19;100.00;100231.73;110332;1268;22169;-79
2023/10/13 00:40:52;;;;;;;21.30;5.60;;;;;;;14.17;100.00;100225.70;110315;1276;22403;-79
2023/10/13 00:43:32;;;;;;;22.90;5.30;;;;;;;14.16;100.00;100228.34;110324;1276;22423;-79
2023/10/13 00:46:07;;;;;;;;;;;;;;;14.15;100.00;100227.62;110326;1276;22510;-79
2023/10/13 00:48:51;;;;;;;18.30;5.50;;;;;;;14.11;100.00;100228.83;110318;1276;22243;-79
2023/10/13 00:51:34;;;;;;;16.80;5.10;;;;;;;14.08;100.00;100229.95;110280;1268;22209;-77
2023/10/13 00:54:11;;;;;;;20.10;6.10;;;;;;;14.07;100.00;100226.82;110319;1276;22866;-77
2023/10/13 00:56:47;;;;;;;16.00;5.30;;;;;;;14.06;100.00;100220.39;110330;1269;22182;-77
2023/10/13 00:59:23;;;;;;;21.60;6.10;;;;;;;14.04;100.00;100223.89;110277;1267;22291;-77
2023/10/13 01:01:55;;;;;;;19.70;6.10;;;;;;;14.03;100.00;100223.73;110345;1276;22185;-77
2023/10/13 01:04:28;;;;;;;18.90;5.40;;;;;;;14.00;100.00;100227.25;110291;1275;22193;-78
2023/10/13 01:06:59;;;;;;;18.50;6.00;;;;;;;14.00;100.00;100227.86;110287;1276;22153;-78
2023/10/13 01:09:32;;;;;;;18.10;6.00;;;;;;;14.00;100.00;100227.95;110293;1276;22345;-78
2023/10/13 01:12:04;;;;;;;25.20;6.40;;;;;;;13.97;100.00;100227.17;110326;1276;23328;-78
2023/10/13 01:14:35;;;;;;;19.40;6.40;;;;;;;13.95;100.00;100228.34;110317;1276;23161;-78
2023/10/13 01:17:08;;;;;;;19.40;6.70;;;;;;;13.94;100.00;100235.02;110289;1276;22273;-78
2023/10/13 01:19:42;;;;;;;27.00;8.60;;;;;;;13.92;100.00;100238.32;110283;1276;22446;-78
2023/10/13 01:22:13;;;;;;;36.90;8.80;;;;;;;13.90;100.00;100242.86;110313;1276;22186;-78
2023/10/13 01:24:45;;;;;;;25.60;8.50;;;;;;;13.89;100.00;100238.88;110320;1276;22783;-78
2023/10/13 01:27:19;;;;;;;24.10;8.00;;;;;;;13.87;100.00;100244.21;110311;1276;22209;-78
2023/10/13 01:29:51;;;;;;;18.90;6.70;;;;;;;13.86;100.00;100246.61;110264;1276;22175;-78
2023/10/13 01:32:23;;;;;;;22.60;7.20;;;;;;;13.84;100.00;100253.48;110114;1276;249885;-79
2023/10/13 01:34:55;;;;;;;22.90;7.00;;;;;;;13.81;100.00;100249.14;110317;1270;22330;-78
2023/10/13 01:37:26;;;;;;;18.80;7.90;;;;;;;13.81;100.00;100245.92;110325;1276;22166;-79
2023/10/13 01:39:57;;;;;;;22.70;7.10;;;;;;;13.81;100.00;100243.79;110287;1276;22302;-78
2023/10/13 01:42:30;;;;;;;18.70;7.00;;;;;;;13.80;100.00;100239.02;110302;1276;22390;-78
2023/10/13 01:45:05;;;;;;;20.80;6.80;;;;;;;13.81;100.00;100236.02;110305;1276;22186;-78
2023/10/13 01:47:35;;;;;;;22.70;7.50;;;;;;;13.80;100.00;100237.66;110327;1276;22940;-78
2023/10/13 01:50:19;;;;;;;18.40;6.50;;;;;;;13.79;100.00;100234.73;110300;1276;23393;-78
2023/10/13 01:52:50;;;;;;;21.20;6.80;;;;;;;13.79;100.00;100236.05;110306;1276;22169;-78
2023/10/13 01:55:21;;;;;;;18.10;6.60;;;;;;;13.78;100.00;100240.64;110279;1276;22874;-78
2023/10/13 01:57:51;;;;;;;27.00;6.70;;;;;;;13.78;100.00;100240.89;110299;1276;22215;-79
2023/10/13 02:00:22;;;;;;;19.50;7.00;;;;;;;13.79;100.00;100245.50;110324;1268;22335;-79
2023/10/13 02:02:53;;;;;;;19.60;6.30;;;;;;;13.80;100.00;100241.27;110300;1276;22209;-78
2023/10/13 02:05:32;;;;;;;20.20;6.70;;;;;;;13.78;100.00;100243.60;110302;1276;22155;-78
2023/10/13 02:08:04;;;;;;;17.40;5.70;;;;;;;13.78;100.00;100243.80;110258;1276;22289;-78
2023/10/13 02:10:34;;;;;;;21.60;6.00;;;;;;;13.77;100.00;100243.30;110278;1276;23063;-78
2023/10/13 02:13:13;;;;;;;20.90;7.00;;;;;;;13.79;100.00;100244.84;110282;1276;22170;-78
2023/10/13 02:15:44;;;;;;;21.60;6.00;;;;;;;13.79;100.00;100241.08;110312;1276;22183;-79
2023/10/13 02:18:20;;;;;;;19.80;6.60;;;;;;;13.78;100.00;100237.52;110285;1276;23455;-78
2023/10/13 02:20:54;;;;;;;17.20;5.20;;;;;;;13.78;100.00;100237.16;110291;1265;22656;-78
2023/10/13 02:23:29;;;;;;;15.70;4.90;;;;;;;13.76;100.00;100231.75;110327;1276;22214;-78
2023/10/13 02:26:03;;;;;;;19.90;6.70;;;;;;;13.76;100.00;100230.07;110313;1276;22182;-78
2023/10/13 02:28:34;;;;;;;18.10;6.20;;;;;;;13.76;100.00;100232.72;110319;1269;22163;-78
2023/10/13 02:31:06;;;;;;;19.80;6.80;;;;;;;13.75;100.00;100225.13;110318;1276;23357;-78
2023/10/13 02:33:44;;;;;;;20.60;6.70;;;;;;;13.75;100.00;100226.77;110319;1276;22378;-78
2023/10/13 02:36:22;;;;;;;20.70;7.30;;;;;;;13.76;100.00;100223.34;110331;1276;22252;-78
2023/10/13 02:38:57;;;;;;;18.60;6.30;;;;;;;13.76;100.00;100225.84;110334;1273;22190;-78
2023/10/13 02:41:28;;;;;;;16.60;6.40;;;;;;;13.75;100.00;100225.63;109452;1264;25016;-78
2023/10/13 02:43:59;;;;;;;17.70;5.80;;;;;;;13.75;100.00;100225.27;108984;1276;22545;-78
2023/10/13 02:46:30;;;;;;;17.10;6.20;;;;;;;13.74;100.00;100224.19;108547;1276;22517;-77
2023/10/13 02:49:09;;;;;;;17.40;6.20;;;;;;;13.73;100.00;100220.27;107603;1276;22528;-77
2023/10/13 02:51:41;;;;;;;19.10;6.50;;;;;;;13.72;100.00;100225.11;107464;1276;23794;-78
2023/10/13 02:54:18;;;;;;;19.30;6.70;;;;;;;13.72;100.00;100226.42;107390;1265;22522;-77
2023/10/13 02:56:56;;;;;;;20.00;6.30;;;;;;;13.71;100.00;100232.91;107463;1276;22647;-77
2023/10/13 02:59:38;;;;;;;22.70;6.60;;;;;;;13.69;100.00;100233.80;110288;1276;22864;-78
2023/10/13 03:02:23;;;;;;;20.70;6.70;;;;;;;13.65;100.00;100234.19;110288;1276;22276;-78
2023/10/13 03:04:59;;;;;;;14.50;4.80;;;;;;;13.61;100.00;100231.91;110314;1276;22337;-78
2023/10/13 03:07:30;;;;;;;14.20;5.60;;;;;;;13.59;100.00;100232.73;110310;1275;22315;-78
2023/10/13 03:10:09;;;;;;;16.80;5.80;;;;;;;13.57;100.00;100242.40;110243;1276;22213;-78
2023/10/13 03:12:41;;;;;;;16.40;5.90;;;;;;;13.55;100.00;100245.65;110299;1276;22255;-78
2023/10/13 03:15:16;;;;;;;17.80;5.60;;;;;;;13.54;100.00;100243.23;110308;1276;22262;-78
2023/10/13 03:17:48;;;;;;;21.90;6.60;;;;;;;13.52;100.00;100250.08;110314;1269;22262;-78
2023/10/13 03:20:22;;;;;;;17.80;5.90;;;;;;;13.51;100.00;100251.48;110297;1265;22143;-78
2023/10/13 03:22:56;;;;;;;18.90;5.90;;;;;;;13.51;100.00;100249.19;110309;1276;22206;-78
2023/10/13 03:25:36;;;;;;;20.40;6.60;;;;;;;13.52;100.00;100249.09;110270;1276;22506;-78
2023/10/13 03:28:10;;;;;;;29.90;8.80;;;;;;;13.51;100.00;100245.88;110317;1273;23250;-78
2023/10/13 03:30:41;;;;;;;19.00;7.60;;;;;;;13.51;100.00;100253.23;110301;1276;22247;-78
2023/10/13 03:33:14;;;;;;;21.00;7.60;;;;;;;13.51;100.00;100247.27;110276;1271;22243;-78
2023/10/13 03:35:53;;;;;;;22.00;7.40;;;;;;;13.50;100.00;100246.02;110312;1276;22753;-78
2023/10/13 03:38:27;;;;;;;21.80;7.00;;;;;;;13.51;100.00;100244.76;110308;1276;22206;-78
2023/10/13 03:41:07;;;;;;;17.70;6.10;;;;;;;13.49;100.00;100246.16;110335;1268;22156;-78
2023/10/13 03:43:45;;;;;;;21.40;6.80;;;;;;;13.48;100.00;100245.70;110313;1273;22830;-78
2023/10/13 03:46:21;;;;;;;17.60;6.30;;;;;;;13.46;100.00;100244.77;110358;1265;22348;-78
2023/10/13 03:48:59;;;;;;;20.10;6.70;;;;;;;13.45;100.00;100246.80;110287;1276;23119;-78
2023/10/13 03:51:31;;;;;;;24.00;6.40;;;;;;;13.43;100.00;100245.92;110279;1276;23237;-77
2023/10/13 03:54:07;;;;;;;18.50;7.30;;;;;;;13.41;100.00;100246.15;110323;1276;23096;-77
2023/10/13 03:56:41;;;;;;;17.00;5.80;;;;;;;13.40;100.00;100245.13;110320;1276;22143;-77
2023/10/13 03:59:19;;;;;;;19.30;6.80;;;;;;;13.37;100.00;100243.11;110312;1269;23056;-77
2023/10/13 04:01:59;;;;;;;19.50;7.00;;;;;;;13.36;100.00;100245.71;110285;1276;22259;-77
2023/10/13 04:04:42;;;;;;;;;;;;;;;13.35;100.00;100247.29;110272;1271;22380;-77
2023/10/13 04:19:07;;;;;;;19.00;6.40;;;;;;;13.28;100.00;100240.05;109850;1273;22460;-78
2023/10/13 04:21:55;;;;;;;17.60;5.60;;;;;;;13.29;100.00;100233.67;109890;1273;22204;-77
2023/10/13 04:25:00;;;;;;;20.00;6.50;;;;;;;13.28;100.00;100231.94;110000;1276;22394;-77
2023/10/13 04:27:44;;;;;;;16.80;6.30;;;;;;;13.29;100.00;100234.90;109974;1274;22208;-78
2023/10/13 04:30:25;;;;;;;15.70;5.40;;;;;;;13.31;100.00;100234.55;109936;1280;22980;-77
2023/10/13 04:35:58;;;;;;;18.60;5.80;;;;;;;13.35;100.00;100224.90;109737;1284;22645;-77
2023/10/13 04:38:52;;;;;;;18.10;7.60;;;;;;;13.36;100.00;100226.59;109768;1284;22359;-77
2023/10/13 04:41:22;;;;;;;16.80;6.30;;;;;;;13.38;100.00;100230.67;109727;1284;22302;-77
2023/10/13 04:43:56;;;;;;;18.20;6.20;;;;;;;13.39;100.00;100231.64;109642;1278;23064;-77
2023/10/13 04:46:40;;;;;;;22.70;6.60;;;;;;;13.39;100.00;100226.15;109704;1284;22239;-77
2023/10/13 04:49:26;;;;;;;17.80;5.90;;;;;;;13.40;100.00;100230.20;109714;1283;22200;-77
2023/10/13 04:52:12;;;;;;;15.90;5.80;;;;;;;13.41;100.00;100228.46;109733;1284;22283;-77
2023/10/13 04:54:54;;;;;;;17.10;5.50;;;;;;;13.42;100.00;100231.27;109754;1284;22216;-77
2023/10/13 04:57:32;;;;;;;19.00;6.30;;;;;;;13.43;100.00;100230.32;109920;1281;22232;-77
2023/10/13 05:45:39;;;;;;;19.40;7.20;;;;;;;13.89;100.00;100228.97;109381;1290;22214;-77
2023/10/13 05:48:19;;;;;;;24.20;9.50;;;;;;;13.92;100.00;100228.79;109349;1290;23161;-77
2023/10/13 05:51:32;;;;;;;23.50;7.10;;;;;;;13.95;100.00;100224.40;109588;1284;22220;-77
2023/10/13 06:30:26;;;;;;;26.80;11.90;;;;;;;14.44;100.00;100253.09;109906;1281;23099;-76
2023/10/13 06:32:57;;;;;;;25.50;10.80;;;;;;;14.48;100.00;100246.26;109928;1281;22229;-77
2023/10/13 06:35:28;;;;;;;23.50;11.50;;;;;;;14.52;100.00;100249.80;109914;1273;22200;-76
2023/10/13 06:38:00;;;;;;;22.80;10.40;;;;;;;14.56;100.00;100247.30;109930;1278;22240;-77
2023/10/13 06:40:34;;;;;;;29.80;10.70;;;;;;;14.58;100.00;100246.34;110259;1276;23325;-76
2023/10/13 06:43:16;;;;;;;27.50;11.80;;;;;;;14.61;100.00;100246.09;110351;1276;22236;-76
2023/10/13 06:45:50;;;;;;;26.70;10.30;;;;;;;14.65;100.00;100244.36;110328;1274;22205;-76
2023/10/13 06:48:21;;;;;;;26.40;10.60;;;;;;;14.67;100.00;100246.10;110356;1276;22911;-77
2023/10/13 06:50:55;;;;;;;28.50;10.40;;;;;;;14.70;100.00;100245.51;110320;1276;22240;-76
2023/10/13 06:53:29;;;;;;;27.90;11.20;;;;;;;14.73;100.00;100241.37;110308;1276;22872;-77
2023/10/13 06:56:00;;;;;;;25.40;12.10;;;;;;;14.76;100.00;100247.36;110315;1276;22247;-76
2023/10/13 06:58:32;;;;;;;26.20;10.20;;;;;;;14.78;100.00;100243.27;110356;1276;22308;-76
2023/10/13 07:01:07;;;;;;;25.70;10.80;;;;;;;14.81;100.00;100240.73;110337;1276;22925;-76
2023/10/13 07:03:38;;;;;;;28.90;10.40;;;;;;;14.84;100.00;100243.03;110345;1268;22191;-77
2023/10/13 07:06:11;;;;;;;25.10;10.50;;;;;;;14.86;100.00;100242.11;110385;1276;22314;-76
2023/10/13 07:08:43;;;;;;;23.70;10.00;;;;;;;14.90;100.00;100242.27;110356;1276;22949;-77
2023/10/13 07:11:18;;;;;;;22.80;10.50;;;;;;;14.94;100.00;100244.32;110353;1276;22247;-77
2023/10/13 07:13:51;;;;;;;24.30;10.70;;;;;;;14.98;100.00;100241.73;110347;1268;22374;-78
2023/10/13 07:16:23;;;;;;;27.30;10.80;;;;;;;15.02;100.00;100239.36;110379;1276;22274;-76
2023/10/13 07:18:54;;;;;;;26.20;10.80;;;;;;;15.04;100.00;100239.53;110332;1276;22229;-77
2023/10/13 07:21:31;;;;;;;25.60;10.50;;;;;;;15.09;100.00;100243.61;110340;1276;22169;-76
2023/10/13 07:24:08;;;;;;;29.10;11.00;;;;;;;15.16;100.00;100250.37;110301;1276;22840;-76
2023/10/13 07:26:42;;;;;;;30.70;10.80;;;;;;;15.22;100.00;100250.58;110306;1276;22786;-77
2023/10/13 07:29:14;;;;;;;27.70;11.10;;;;;;;15.26;100.00;100252.83;110338;1276;22531;-78
2023/10/13 07:31:45;;;;;;;28.90;12.60;;;;;;;15.32;100.00;100254.58;110335;1276;22981;-76
2023/10/13 07:34:24;;;;;;;21.10;9.00;;;;;;;15.38;100.00;100253.49;110327;1276;22155;-77
2023/10/13 07:36:59;;;;;;;26.70;11.50;;;;;;;15.44;100.00;100251.27;110332;1262;22270;-76
2023/10/13 07:39:33;;;;;;;29.40;12.50;;;;;;;15.51;100.00;100249.64;110299;1276;22440;-76
2023/10/13 07:42:08;;;;;;;24.60;11.50;;;;;;;15.58;100.00;100251.06;110327;1276;22947;-78
2023/10/13 07:44:45;;;;;;;28.10;12.40;;;;;;;15.66;100.00;100258.01;110359;1276;22968;-77
2023/10/13 07:47:18;;;;;;;25.00;11.90;;;;;;;15.72;100.00;100258.20;110380;1262;22214;-78
2023/10/13 07:49:50;;;;;;;25.70;13.10;;;;;;;15.78;100.00;100252.50;110287;1276;22308;-77
2023/10/13 07:52:54;;;;;;;26.40;12.60;;;;;;;15.85;100.00;100251.02;110352;1276;22370;-76
2023/10/13 07:55:24;;;;;;;25.80;13.00;;;;;;;15.94;100.00;100253.65;110352;1276;22187;-77
2023/10/13 07:57:56;;;;;;;29.90;12.60;;;;;;;16.00;100.00;100249.89;110389;1276;22144;-77
2023/10/13 08:00:38;;;;;;;28.50;13.30;;;;;;;16.08;100.00;100250.48;110360;1276;23145;-77
2023/10/13 08:03:19;;;;;;;30.20;13.00;;;;;;;16.17;100.00;100241.44;110366;1276;22835;-77
2023/10/13 08:06:04;;;;;;;26.00;12.50;;;;;;;16.26;100.00;100237.02;110399;1276;22906;-78
2023/10/13 08:08:37;;;;;;;28.00;13.50;;;;;;;16.33;100.00;100237.34;110353;1276;22361;-77
2023/10/13 08:11:11;;;;;;;26.60;12.40;;;;;;;16.38;100.00;100239.57;110341;1276;22250;-79
2023/10/13 08:13:46;;;;;;;31.60;14.20;;;;;;;16.44;100.00;100240.20;110259;1277;22385;-76
2023/10/13 08:16:20;;;;;;;30.30;14.10;;;;;;;16.53;100.00;100238.44;110310;1276;22210;-76
2023/10/13 08:18:51;;;;;;;27.80;14.20;;;;;;;16.62;100.00;100229.79;110350;1272;23121;-77
2023/10/13 08:21:23;;;;;;;30.10;14.00;;;;;;;16.67;100.00;100230.73;110357;1276;22182;-77
2023/10/13 08:24:06;;;;;;;30.00;14.50;;;;;;;16.74;100.00;100222.65;110323;1267;22643;-77
2023/10/13 08:32:23;;;;;;;26.20;11.90;;;;;;;16.96;100.00;100224.29;110307;1276;22207;-77
2023/10/13 08:35:09;;;;;;;34.90;17.20;;;;;;;17.05;100.00;100233.14;110326;1276;23770;-77
2023/10/13 08:37:59;;;;;;;29.90;16.00;;;;;;;17.12;100.00;100237.86;110354;1276;23124;-77
2023/10/13 08:43:20;;;;;;;33.40;14.20;;;;;;;17.30;100.00;100243.88;110354;1276;23086;-78
2023/10/13 08:45:58;;;;;;;28.10;10.30;;;;;;;17.37;100.00;100245.34;110343;1268;22203;-77
2023/10/13 08:48:32;;;;;;;29.70;14.20;;;;;;;17.42;100.00;100245.02;110262;1276;22254;-77
2023/10/13 08:51:31;;;;;;;25.50;11.30;;;;;;;17.47;100.00;100247.32;110323;1276;23031;-77
2023/10/13 08:54:09;;;;;;;20.80;10.20;;;;;;;17.53;100.00;100236.86;110342;1276;22900;-77
2023/10/13 08:56:47;;;;;;;26.90;11.90;;;;;;;17.59;100.00;100236.23;110388;1276;22229;-77
2023/10/13 08:59:33;;;;;;;24.60;10.30;;;;;;;17.66;100.00;100235.92;110335;1276;22209;-77
2023/10/13 09:02:15;;;;;;;20.70;8.20;;;;;;;17.74;100.00;100235.54;110389;1276;22160;-77
2023/10/13 09:04:46;;;;;;;21.20;8.70;;;;;;;17.82;100.00;100239.36;110370;1276;22201;-77
2023/10/13 09:07:21;;;;;;;22.00;8.70;;;;;;;17.90;100.00;100238.86;110369;1276;22217;-77
2023/10/13 09:10:32;;;;;;;17.80;7.40;;;;;;;17.97;99.70;100234.02;110293;1276;22171;-77
2023/10/13 09:13:11;;;;;;;16.00;6.90;;;;;;;18.04;99.37;100231.93;110361;1272;22308;-77
2023/10/13 16:07:45;;;;;;;12.60;2.80;;;;;;;19.43;84.39;99847.09;110410;1274;23100;-79
2023/10/13 16:10:17;;;;;;;11.90;2.20;;;;;;;19.39;84.52;99847.85;110447;1267;22372;-79
2023/10/13 16:12:48;;;;;;;8.70;2.00;;;;;;;19.39;84.55;99852.26;110418;1274;22195;-80
2023/10/13 16:15:21;;;;;;;9.20;2.10;;;;;;;19.38;84.50;99847.15;110378;1274;22469;-79
2023/10/13 16:17:53;;;;;;;12.10;2.40;;;;;;;19.36;84.54;99848.99;110403;1267;22364;-79
2023/10/13 16:20:24;;;;;;;10.40;2.40;;;;;;;19.34;84.67;99851.87;110377;1267;22249;-79
2023/10/13 16:22:56;;;;;;;11.70;2.60;;;;;;;19.31;84.67;99850.55;110271;1267;23268;-78
2023/10/13 16:25:26;;;;;;;13.00;2.80;;;;;;;19.28;84.78;99849.35;110442;1269;22189;-79
2023/10/13 16:27:57;;;;;;;11.50;2.10;;;;;;;19.23;84.78;99838.71;110455;1274;22742;-79
2023/10/13 16:30:28;;;;;;;11.70;2.20;;;;;;;19.19;84.80;99842.55;110422;1272;22241;-79
2023/10/13 16:32:59;;;;;;;12.50;2.60;;;;;;;19.16;84.93;99835.38;110408;1257;23153;-79
2023/10/13 16:35:33;;;;;;;12.40;2.90;;;;;;;19.15;85.00;99833.14;110402;1274;22317;-79
2023/10/13 16:38:06;;;;;;;16.00;3.70;;;;;;;19.10;85.10;99833.91;110430;1274;22944;-79
2023/10/13 16:40:39;;;;;;;15.50;4.60;;;;;;;19.04;85.07;99829.83;110434;1274;22120;-79
2023/10/13 16:43:12;;;;;;;14.60;3.00;;;;;;;18.98;85.34;99828.81;110435;1274;22221;-79
2023/10/13 16:45:45;;;;;;;13.70;3.60;;;;;;;18.93;85.48;99828.67;110454;1274;22310;-79
2023/10/13 16:48:16;;;;;;;13.70;3.30;;;;;;;18.89;85.59;99825.46;110451;1274;22438;-79
2023/10/13 16:50:47;;;;;;;17.30;3.90;;;;;;;18.86;85.72;99824.38;110444;1274;23055;-79
2023/10/13 16:53:18;;;;;;;11.70;3.30;;;;;;;18.83;85.79;99819.48;110472;1274;22147;-77
2023/10/13 16:55:49;;;;;;;15.90;3.10;;;;;;;18.81;85.75;99813.94;110456;1273;22175;-76
2023/10/13 16:58:22;;;;;;;12.50;2.90;;;;;;;18.79;85.80;99811.05;110460;1267;22303;-79
2023/10/13 17:00:53;;;;;;;14.40;3.10;;;;;;;18.77;85.89;99807.94;110420;1267;22256;-78
2023/10/13 17:03:29;;;;;;;12.50;3.00;;;;;;;18.74;85.96;99806.46;110477;1267;22158;-77
2023/10/13 17:06:01;;;;;;;12.30;3.50;;;;;;;18.70;86.07;99807.98;110426;1274;22863;-79
2023/10/13 17:08:31;;;;;;;14.30;4.20;;;;;;;18.67;86.13;99803.01;110432;1274;23234;-77
2023/10/13 17:11:11;;;;;;;18.00;5.00;;;;;;;18.63;86.13;99803.25;110383;1274;22144;-77
2023/10/13 17:13:43;;;;;;;16.60;3.50;;;;;;;18.60;86.33;99801.92;110401;1267;23093;-77
2023/10/13 17:16:17;;;;;;;25.00;3.40;;;;;;;18.57;86.40;99801.93;110441;1274;22184;-77
2023/10/13 17:18:48;;;;;;;13.60;3.90;;;;;;;18.55;86.42;99799.05;110465;1274;22313;-77
2023/10/13 17:21:22;;;;;;;19.60;3.50;;;;;;;18.54;86.42;99796.68;110397;1274;22986;-77
2023/10/13 17:23:56;;;;;;;19.00;3.20;;;;;;;18.51;86.49;99798.91;110419;1274;22156;-77
2023/10/13 17:26:27;;;;;;;13.20;3.00;;;;;;;18.49;86.60;99792.52;110459;1274;22155;-77
2023/10/13 17:28:59;;;;;;;11.50;3.10;;;;;;;18.47;86.64;99793.28;110440;1274;22256;-77
2023/10/13 17:31:31;;;;;;;13.10;3.10;;;;;;;18.45;86.67;99792.20;110427;1274;22143;-78
2023/10/13 17:34:02;;;;;;;17.40;3.00;;;;;;;18.43;86.58;99792.34;110387;1274;22213;-78
2023/10/13 17:36:33;;;;;;;15.20;2.80;;;;;;;18.43;86.63;99789.55;110390;1274;22187;-77
2023/10/13 17:39:08;;;;;;;10.70;2.90;;;;;;;18.40;86.69;99784.91;110450;1274;22340;-77
2023/10/13 17:41:39;;;;;;;23.20;4.40;;;;;;;18.40;86.81;99787.38;110415;1274;22373;-77
2023/10/13 17:44:10;;;;;;;14.40;3.50;;;;;;;18.37;86.78;99785.39;110431;1274;22617;-77
2023/10/13 17:46:41;;;;;;;15.00;2.90;;;;;;;18.35;86.77;99786.35;110428;1274;23360;-78
2023/10/13 17:49:12;;;;;;;13.30;3.60;;;;;;;18.32;86.90;99780.98;110404;1268;22829;-77
2023/10/13 17:51:44;;;;;;;13.00;2.60;;;;;;;18.29;86.95;99778.11;110418;1274;23109;-78
2023/10/13 17:54:14;;;;;;;15.60;2.90;;;;;;;18.26;87.00;99772.60;110430;1274;22274;-77
2023/10/13 17:56:45;;;;;;;19.50;3.70;;;;;;;18.24;86.92;99767.41;110410;1274;22337;-77
2023/10/13 17:59:17;;;;;;;13.70;3.80;;;;;;;18.22;87.05;99771.56;110397;1274;22206;-77
2023/10/13 18:01:49;;;;;;;14.70;3.20;;;;;;;18.17;87.00;99768.17;110383;1274;23474;-77
2023/10/13 18:04:20;;;;;;;10.30;2.80;;;;;;;18.11;87.04;99768.38;110314;1267;23069;-77
2023/10/13 18:06:52;;;;;;;13.60;2.80;;;;;;;18.06;87.05;99764.06;110425;1274;23352;-77
2023/10/13 18:09:23;;;;;;;14.90;3.50;;;;;;;18.05;87.24;99764.23;110368;1274;22232;-77
2023/10/13 18:11:54;;;;;;;11.70;3.60;;;;;;;18.03;87.19;99763.86;110341;1267;22446;-77
2023/10/13 18:14:25;;;;;;;26.80;4.90;;;;;;;18.02;87.24;99761.46;110393;1273;23107;-76
2023/10/13 18:16:56;;;;;;;12.20;3.40;;;;;;;18.01;87.30;99761.17;110431;1267;22399;-77
2023/10/13 18:19:27;;;;;;;13.60;3.10;;;;;;;18.01;87.24;99757.98;110377;1275;22805;-77
2023/10/13 18:21:58;;;;;;;12.80;3.30;;;;;;;18.00;87.21;99760.42;110513;1267;22376;-77
2023/10/13 18:24:29;;;;;;;13.20;3.70;;;;;;;17.98;87.16;99751.58;110566;1267;23317;-77
2023/10/13 18:27:01;;;;;;;15.20;3.30;;;;;;;17.95;87.21;99750.75;110510;1274;22881;-77
2023/10/13 18:29:32;;;;;;;18.10;3.80;;;;;;;17.92;87.28;99747.47;110410;1273;22183;-77
2023/10/13 18:32:06;;;;;;;15.20;3.50;;;;;;;17.91;87.39;99740.48;110422;1274;22139;-77
2023/10/13 18:34:37;;;;;;;19.50;3.10;;;;;;;17.89;87.33;99742.05;110400;1274;22181;-76
2023/10/13 18:37:09;;;;;;;12.30;3.60;;;;;;;17.89;87.42;99741.59;110298;1274;22410;-77
2023/10/13 18:39:40;;;;;;;13.30;3.10;;;;;;;17.88;87.41;99740.48;110388;1274;23131;-77
2023/10/13 18:42:12;;;;;;;20.30;4.10;;;;;;;17.87;87.43;99737.00;110415;1274;22201;-77
2023/10/13 18:44:45;;;;;;;17.00;3.90;;;;;;;17.85;87.36;99732.56;110399;1274;22606;-77
2023/10/13 18:47:17;;;;;;;18.10;3.20;;;;;;;17.84;87.33;99730.84;110427;1274;22181;-76
2023/10/13 18:49:48;;;;;;;14.20;3.60;;;;;;;17.80;87.33;99732.05;110423;1274;22273;-77
2023/10/13 18:52:19;;;;;;;20.20;4.10;;;;;;;17.78;87.46;99726.16;110419;1274;22180;-77
2023/10/13 18:54:49;;;;;;;15.50;3.70;;;;;;;17.77;87.55;99726.20;110440;1274;22949;-76
2023/10/13 18:57:21;;;;;;;18.00;3.90;;;;;;;17.77;87.60;99721.52;110409;1274;22225;-77
2023/10/13 18:59:52;;;;;;;18.70;4.70;;;;;;;17.76;87.53;99717.48;110435;1274;23020;-77
2023/10/13 19:02:24;;;;;;;17.00;4.20;;;;;;;17.74;87.50;99719.98;110397;1274;22975;-77
2023/10/13 19:04:56;;;;;;;17.60;5.20;;;;;;;17.73;87.46;99720.83;110464;1264;22374;-77
2023/10/13 19:07:27;;;;;;;18.40;4.00;;;;;;;17.70;87.61;99712.88;110397;1274;22137;-77
2023/10/13 19:09:58;;;;;;;18.00;5.10;;;;;;;17.67;87.64;99716.66;110436;1274;22163;-77
2023/10/13 19:12:29;;;;;;;17.80;5.70;;;;;;;17.64;87.71;99715.74;110428;1274;23237;-78
2023/10/13 19:15:00;;;;;;;15.00;3.70;;;;;;;17.62;87.81;99713.08;110467;1274;22568;-79
2023/10/13 19:17:36;;;;;;;16.20;4.60;;;;;;;17.58;87.82;99708.31;110422;1267;22350;-78
2023/10/13 19:20:15;;;;;;;14.40;4.20;;;;;;;17.54;87.76;99701.87;110452;1263;22264;-78
2023/10/13 19:22:52;;;;;;;15.90;4.50;;;;;;;17.51;87.85;99703.37;110460;1266;23153;-79
2023/10/13 19:25:24;;;;;;;17.40;5.30;;;;;;;17.47;87.87;99700.89;110470;1271;22185;-79
2023/10/13 19:27:55;;;;;;;19.40;4.40;;;;;;;17.45;87.79;99695.99;110456;1266;22351;-79
2023/10/13 19:30:28;;;;;;;17.30;3.00;;;;;;;17.43;87.66;99693.40;110477;1267;22338;-79
2023/10/13 19:32:59;;;;;;;18.00;4.00;;;;;;;17.39;87.45;99690.77;110468;1266;22207;-79
2023/10/13 19:35:30;;;;;;;15.80;3.50;;;;;;;17.36;87.38;99688.40;110466;1272;22917;-80
2023/10/13 19:38:01;;;;;;;13.50;2.50;;;;;;;17.36;87.21;99687.13;110419;1274;22245;-75
2023/10/13 19:40:35;;;;;;;17.30;3.50;;;;;;;17.37;87.26;99687.16;110349;1273;23298;-77
2023/10/13 19:43:11;;;;;;;16.90;2.20;;;;;;;17.38;87.05;99684.05;110374;1267;22206;-77
2023/10/13 19:45:42;;;;;;;17.20;2.90;;;;;;;17.41;86.96;99683.66;110338;1268;23001;-77
2023/10/13 19:48:13;;;;;;;16.70;2.50;;;;;;;17.43;86.72;99682.90;110343;1267;22329;-77
2023/10/13 19:50:46;;;;;;;18.80;2.60;;;;;;;17.46;86.59;99678.17;110392;1260;22350;-77
2023/10/13 19:53:16;;;;;;;14.00;3.30;;;;;;;17.49;86.47;99679.23;110382;1274;23189;-77
2023/10/13 19:55:47;;;;;;;12.30;2.20;;;;;;;17.52;86.27;99678.56;110413;1272;22206;-76
2023/10/13 19:58:18;;;;;;;11.50;2.20;;;;;;;17.55;86.20;99673.67;110403;1269;22274;-78
2023/10/13 20:00:54;;;;;;;13.40;2.40;;;;;;;17.58;86.10;99675.16;110331;1272;22254;-78
2023/10/13 20:03:25;;;;;;;25.40;2.90;;;;;;;17.61;85.91;99667.26;110321;1267;22336;-77
2023/10/13 20:05:59;;;;;;;15.40;3.10;;;;;;;17.61;85.90;99659.70;110313;1257;23483;-77
2023/10/13 20:08:30;;;;;;;12.80;2.30;;;;;;;17.63;85.85;99658.55;110390;1269;22191;-78
2023/10/13 20:11:00;;;;;;;15.40;2.80;;;;;;;17.64;85.64;99654.23;110435;1266;22269;-77
2023/10/13 20:13:35;;;;;;;16.60;2.70;;;;;;;17.65;85.47;99651.33;110417;1274;22188;-78
2023/10/13 20:16:07;;;;;;;11.90;2.40;;;;;;;17.67;85.15;99645.48;110497;1267;22372;-77
2023/10/13 20:18:41;;;;;;;14.70;3.00;;;;;;;17.68;85.07;99640.39;110433;1274;22333;-78